createdAt,value
2022-08-12T00:00:46.973Z,99545.00
2022-08-12T00:02:03.632Z,99544.00
2022-08-12T00:02:47.059Z,99544.00
2022-08-12T00:03:47.035Z,99542.00
2022-08-12T00:04:47.038Z,99542.00
2022-08-12T00:05:56.341Z,99546.00
2022-08-12T00:06:47.088Z,99546.00
2022-08-12T00:07:47.077Z,99544.00
2022-08-12T00:08:47.139Z,99539.00
2022-08-12T00:09:47.122Z,99544.00
2022-08-12T00:10:47.181Z,99545.00
2022-08-12T00:11:47.138Z,99541.00
2022-08-12T00:12:47.158Z,99542.00
2022-08-12T00:13:47.178Z,99540.00
2022-08-12T00:14:47.156Z,99544.00
2022-08-12T00:15:47.186Z,99541.00
2022-08-12T00:16:47.208Z,99544.00
2022-08-12T00:17:47.226Z,99542.00
2022-08-12T00:18:47.272Z,99542.00
2022-08-12T00:19:47.291Z,99544.00
2022-08-12T00:20:47.284Z,99544.00
2022-08-12T00:21:47.314Z,99544.00
2022-08-12T00:22:52.988Z,99545.00
2022-08-12T00:23:47.312Z,99542.00
2022-08-12T00:24:47.342Z,99545.00
2022-08-12T00:25:55.817Z,99547.00
2022-08-12T00:26:47.375Z,99543.00
2022-08-12T00:27:47.383Z,99547.00
2022-08-12T00:28:47.400Z,99547.00
2022-08-12T00:29:48.269Z,99548.00
2022-08-12T00:30:47.446Z,99547.00
2022-08-12T00:31:47.512Z,99547.00
2022-08-12T00:32:54.778Z,99546.00
2022-08-12T00:33:51.746Z,99546.00
2022-08-12T00:34:48.532Z,99544.00
2022-08-12T00:35:47.528Z,99537.00
2022-08-12T00:36:50.101Z,99547.00
2022-08-12T00:37:47.565Z,99543.00
2022-08-12T00:38:47.589Z,99547.00
2022-08-12T00:39:47.715Z,99546.00
2022-08-12T00:40:47.662Z,99542.00
2022-08-12T00:41:47.662Z,99542.00
2022-08-12T00:42:47.695Z,99546.00
2022-08-12T00:43:47.672Z,99541.00
2022-08-12T00:44:48.203Z,99541.00
2022-08-12T00:45:47.743Z,99546.00
2022-08-12T00:46:47.780Z,99551.00
2022-08-12T00:47:47.777Z,99552.00
2022-08-12T00:48:47.825Z,99552.00
2022-08-12T00:49:50.258Z,99551.00
2022-08-12T00:50:47.879Z,99549.00
2022-08-12T00:51:47.874Z,99539.00
2022-08-12T00:52:47.900Z,99545.00
2022-08-12T00:53:47.955Z,99544.00
2022-08-12T00:54:47.961Z,99544.00
2022-08-12T00:55:47.955Z,99536.00
2022-08-12T00:56:47.992Z,99536.00
2022-08-12T00:57:47.986Z,99535.00
2022-08-12T00:58:47.996Z,99534.00
2022-08-12T00:59:48.030Z,99534.00
2022-08-12T01:00:48.033Z,99536.00
2022-08-12T01:02:00.899Z,99543.00
2022-08-12T01:02:48.076Z,99541.00
2022-08-12T01:03:48.061Z,99538.00
2022-08-12T01:04:48.066Z,99543.00
2022-08-12T01:05:48.090Z,99538.00
2022-08-12T01:06:51.142Z,99545.00
2022-08-12T01:07:48.121Z,99542.00
2022-08-12T01:08:48.089Z,99547.00
2022-08-12T01:09:48.113Z,99548.00
2022-08-12T01:10:48.134Z,99547.00
2022-08-12T01:11:48.149Z,99546.00
2022-08-12T01:12:48.177Z,99547.00
2022-08-12T01:13:48.154Z,99551.00
2022-08-12T01:14:48.167Z,99547.00
2022-08-12T01:15:48.185Z,99551.00
2022-08-12T01:16:48.184Z,99549.00
2022-08-12T01:17:48.220Z,99551.00
2022-08-12T01:18:48.261Z,99553.00
2022-08-12T01:19:48.271Z,99552.00
2022-08-12T01:20:48.309Z,99548.00
2022-08-12T01:21:48.309Z,99547.00
2022-08-12T01:22:48.305Z,99545.00
2022-08-12T01:23:48.323Z,99546.00
2022-08-12T01:24:48.341Z,99543.00
2022-08-12T01:25:56.093Z,99545.00
2022-08-12T01:26:48.333Z,99541.00
2022-08-12T01:27:48.329Z,99544.00
2022-08-12T01:28:48.336Z,99547.00
2022-08-12T01:29:48.365Z,99548.00
2022-08-12T01:30:48.375Z,99549.00
2022-08-12T01:31:48.338Z,99545.00
2022-08-12T01:32:48.392Z,99548.00
2022-08-12T01:33:48.353Z,99547.00
2022-08-12T01:34:48.382Z,99548.00
2022-08-12T01:35:57.865Z,99545.00
2022-08-12T01:36:48.420Z,99546.00
2022-08-12T01:37:48.418Z,99546.00
2022-08-12T01:38:48.436Z,99549.00
2022-08-12T01:40:35.179Z,99550.00
2022-08-12T01:40:48.568Z,99548.00
2022-08-12T01:41:51.500Z,99548.00
2022-08-12T01:42:48.488Z,99541.00
2022-08-12T01:43:48.485Z,99545.00
2022-08-12T01:44:48.529Z,99546.00
2022-08-12T01:45:48.761Z,99542.00
2022-08-12T01:46:48.537Z,99548.00
2022-08-12T01:47:48.548Z,99544.00
2022-08-12T01:48:48.630Z,99546.00
2022-08-12T01:49:48.596Z,99543.00
2022-08-12T01:50:48.636Z,99544.00
2022-08-12T01:52:19.918Z,99540.00
2022-08-12T01:52:48.629Z,99550.00
2022-08-12T01:53:50.944Z,99546.00
2022-08-12T01:54:48.601Z,99539.00
2022-08-12T01:55:48.607Z,99544.00
2022-08-12T01:56:48.663Z,99542.00
2022-08-12T01:57:59.777Z,99537.00
2022-08-12T01:58:48.693Z,99538.00
2022-08-12T01:59:48.693Z,99541.00
2022-08-12T02:00:55.967Z,99542.00
2022-08-12T02:01:48.769Z,99542.00
2022-08-12T02:02:48.732Z,99538.00
2022-08-12T02:03:48.731Z,99541.00
2022-08-12T02:04:48.776Z,99538.00
2022-08-12T02:05:48.806Z,99538.00
2022-08-12T02:06:48.789Z,99534.00
2022-08-12T02:07:48.823Z,99535.00
2022-08-12T02:08:48.856Z,99538.00
2022-08-12T02:09:48.870Z,99538.00
2022-08-12T02:10:51.398Z,99536.00
2022-08-12T02:11:48.905Z,99538.00
2022-08-12T02:12:48.913Z,99537.00
2022-08-12T02:13:50.184Z,99538.00
2022-08-12T02:14:48.931Z,99532.00
2022-08-12T02:15:48.939Z,99535.00
2022-08-12T02:16:48.949Z,99529.00
2022-08-12T02:17:55.082Z,99531.00
2022-08-12T02:18:48.998Z,99534.00
2022-08-12T02:19:49.022Z,99532.00
2022-08-12T02:20:51.273Z,99527.00
2022-08-12T02:21:49.020Z,99532.00
2022-08-12T02:22:49.047Z,99528.00
2022-08-12T02:23:49.061Z,99532.00
2022-08-12T02:24:49.065Z,99532.00
2022-08-12T02:25:49.066Z,99531.00
2022-08-12T02:26:49.095Z,99530.00
2022-08-12T02:27:49.095Z,99527.00
2022-08-12T02:28:49.122Z,99529.00
2022-08-12T02:29:49.146Z,99529.00
2022-08-12T02:30:49.126Z,99533.00
2022-08-12T02:31:49.107Z,99531.00
2022-08-12T02:32:49.137Z,99528.00
2022-08-12T02:33:49.177Z,99534.00
2022-08-12T02:34:49.196Z,99528.00
2022-08-12T02:35:49.244Z,99528.00
2022-08-12T02:36:49.215Z,99530.00
2022-08-12T02:37:49.217Z,99527.00
2022-08-12T02:38:49.228Z,99528.00
2022-08-12T02:39:49.386Z,99526.00
2022-08-12T02:40:49.261Z,99526.00
2022-08-12T02:41:49.272Z,99524.00
2022-08-12T02:42:49.283Z,99524.00
2022-08-12T02:43:49.294Z,99523.00
2022-08-12T02:44:49.324Z,99522.00
2022-08-12T02:45:49.336Z,99520.00
2022-08-12T02:46:49.353Z,99517.00
2022-08-12T02:47:58.494Z,99518.00
2022-08-12T02:48:49.406Z,99517.00
2022-08-12T02:49:49.415Z,99516.00
2022-08-12T02:50:49.455Z,99515.00
2022-08-12T02:51:49.503Z,99513.00
2022-08-12T02:52:49.481Z,99509.00
2022-08-12T02:54:04.923Z,99508.00
2022-08-12T02:54:49.497Z,99508.00
2022-08-12T02:55:49.554Z,99508.00
2022-08-12T02:56:50.701Z,99508.00
2022-08-12T02:57:49.578Z,99509.00
2022-08-12T02:58:49.604Z,99508.00
2022-08-12T02:59:49.627Z,99505.00
2022-08-12T03:00:49.727Z,99504.00
2022-08-12T03:01:49.697Z,99506.00
2022-08-12T03:02:49.668Z,99505.00
2022-08-12T03:03:49.651Z,99508.00
2022-08-12T03:04:49.675Z,99508.00
2022-08-12T03:05:49.708Z,99503.00
2022-08-12T03:06:49.722Z,99512.00
2022-08-12T03:07:59.406Z,99508.00
2022-08-12T03:08:53.935Z,99508.00
2022-08-12T03:10:05.401Z,99509.00
2022-08-12T03:10:49.800Z,99513.00
2022-08-12T03:11:49.783Z,99513.00
2022-08-12T03:12:51.054Z,99505.00
2022-08-12T03:13:49.782Z,99511.00
2022-08-12T03:14:49.793Z,99511.00
2022-08-12T03:15:49.837Z,99509.00
2022-08-12T03:16:49.804Z,99508.00
2022-08-12T03:18:24.553Z,99510.00
2022-08-12T03:18:49.835Z,99511.00
2022-08-12T03:20:10.127Z,99514.00
2022-08-12T03:20:49.880Z,99512.00
2022-08-12T03:21:52.660Z,99510.00
2022-08-12T03:22:49.943Z,99510.00
2022-08-12T03:23:49.966Z,99510.00
2022-08-12T03:24:49.966Z,99510.00
2022-08-12T03:25:49.980Z,99514.00
2022-08-12T03:26:49.987Z,99509.00
2022-08-12T03:27:50.020Z,99507.00
2022-08-12T03:28:50.044Z,99506.00
2022-08-12T03:29:51.548Z,99512.00
2022-08-12T03:30:54.734Z,99509.00
2022-08-12T03:31:50.039Z,99510.00
2022-08-12T03:32:50.581Z,99512.00
2022-08-12T03:34:01.778Z,99508.00
2022-08-12T03:34:50.087Z,99508.00
2022-08-12T03:35:50.197Z,99511.00
2022-08-12T03:36:50.100Z,99507.00
2022-08-12T03:37:50.128Z,99511.00
2022-08-12T03:38:50.150Z,99512.00
2022-08-12T03:39:50.240Z,99510.00
2022-08-12T03:40:50.147Z,99510.00
2022-08-12T03:41:50.168Z,99510.00
2022-08-12T03:42:50.207Z,99510.00
2022-08-12T03:43:50.199Z,99508.00
2022-08-12T03:44:50.236Z,99512.00
2022-08-12T03:45:52.657Z,99511.00
2022-08-12T03:46:50.215Z,99507.00
2022-08-12T03:47:50.232Z,99512.00
2022-08-12T03:48:50.250Z,99506.00
2022-08-12T03:49:50.253Z,99511.00
2022-08-12T03:50:50.281Z,99506.00
2022-08-12T03:51:50.274Z,99505.00
2022-08-12T03:52:50.238Z,99510.00
2022-08-12T03:53:50.241Z,99512.00
2022-08-12T03:54:50.263Z,99511.00
2022-08-12T03:55:50.271Z,99518.00
2022-08-12T03:56:50.298Z,99521.00
2022-08-12T03:57:50.303Z,99514.00
2022-08-12T03:58:50.316Z,99522.00
2022-08-12T03:59:50.330Z,99517.00
2022-08-12T04:00:50.429Z,99515.00
2022-08-12T04:01:50.326Z,99522.00
2022-08-12T04:02:50.348Z,99520.00
2022-08-12T04:03:50.363Z,99521.00
2022-08-12T04:04:50.390Z,99522.00
2022-08-12T04:05:56.069Z,99522.00
2022-08-12T04:06:50.439Z,99519.00
2022-08-12T04:07:54.693Z,99523.00
2022-08-12T04:08:50.505Z,99524.00
2022-08-12T04:09:50.477Z,99524.00
2022-08-12T04:10:50.451Z,99529.00
2022-08-12T04:11:50.465Z,99527.00
2022-08-12T04:12:50.492Z,99528.00
2022-08-12T04:13:50.507Z,99525.00
2022-08-12T04:14:50.605Z,99526.00
2022-08-12T04:15:50.506Z,99527.00
2022-08-12T04:16:50.521Z,99524.00
2022-08-12T04:18:07.299Z,99524.00
2022-08-12T04:18:50.580Z,99523.00
2022-08-12T04:19:50.587Z,99525.00
2022-08-12T04:20:50.634Z,99527.00
2022-08-12T04:22:01.804Z,99527.00
2022-08-12T04:22:50.636Z,99527.00
2022-08-12T04:23:50.633Z,99531.00
2022-08-12T04:24:50.797Z,99524.00
2022-08-12T04:25:50.655Z,99527.00
2022-08-12T04:26:50.680Z,99530.00
2022-08-12T04:27:50.770Z,99528.00
2022-08-12T04:28:50.719Z,99531.00
2022-08-12T04:30:29.549Z,99533.00
2022-08-12T04:30:50.766Z,99531.00
2022-08-12T04:31:50.783Z,99532.00
2022-08-12T04:32:50.967Z,99530.00
2022-08-12T04:33:50.820Z,99533.00
2022-08-12T04:34:50.826Z,99527.00
2022-08-12T04:35:50.856Z,99529.00
2022-08-12T04:36:50.868Z,99529.00
2022-08-12T04:37:59.814Z,99526.00
2022-08-12T04:38:50.922Z,99531.00
2022-08-12T04:39:51.020Z,99529.00
2022-08-12T04:40:50.961Z,99531.00
2022-08-12T04:41:58.154Z,99530.00
2022-08-12T04:42:51.004Z,99533.00
2022-08-12T04:44:00.494Z,99535.00
2022-08-12T04:44:50.993Z,99536.00
2022-08-12T04:45:51.020Z,99535.00
2022-08-12T04:46:51.061Z,99533.00
2022-08-12T04:47:51.087Z,99531.00
2022-08-12T04:48:51.115Z,99530.00
2022-08-12T04:49:51.134Z,99530.00
2022-08-12T04:50:51.134Z,99534.00
2022-08-12T04:51:58.836Z,99528.00
2022-08-12T04:52:51.173Z,99529.00
2022-08-12T04:53:51.181Z,99530.00
2022-08-12T04:54:51.208Z,99533.00
2022-08-12T04:55:51.224Z,99530.00
2022-08-12T04:57:03.180Z,99532.00
2022-08-12T04:57:51.274Z,99536.00
2022-08-12T04:58:52.770Z,99537.00
2022-08-12T04:59:51.281Z,99535.00
2022-08-12T05:02:22.095Z,99531.00
2022-08-12T05:03:17.234Z,99535.00
2022-08-12T05:04:17.251Z,99539.00
2022-08-12T05:05:17.232Z,99535.00
2022-08-12T05:06:18.941Z,99537.00
2022-08-12T05:07:17.445Z,99536.00
2022-08-12T05:08:17.283Z,99536.00
2022-08-12T05:09:17.282Z,99534.00
2022-08-12T05:10:17.310Z,99530.00
2022-08-12T05:11:17.350Z,99535.00
2022-08-12T05:12:17.373Z,99536.00
2022-08-12T05:13:17.392Z,99533.00
2022-08-12T05:14:17.454Z,99541.00
2022-08-12T05:15:27.627Z,99539.00
2022-08-12T05:16:17.453Z,99538.00
2022-08-12T05:17:17.465Z,99539.00
2022-08-12T05:18:20.359Z,99542.00
2022-08-12T05:19:18.638Z,99542.00
2022-08-12T05:20:17.540Z,99542.00
2022-08-12T05:21:17.519Z,99543.00
2022-08-12T05:22:17.576Z,99544.00
2022-08-12T05:23:17.588Z,99543.00
2022-08-12T05:24:17.599Z,99541.00
2022-08-12T05:25:18.501Z,99540.00
2022-08-12T05:26:17.645Z,99543.00
2022-08-12T05:27:17.675Z,99543.00
2022-08-12T05:28:17.654Z,99543.00
2022-08-12T05:30:08.163Z,99540.00
2022-08-12T05:30:17.707Z,99548.00
2022-08-12T05:31:42.448Z,99549.00
2022-08-12T05:32:17.751Z,99548.00
2022-08-12T05:33:17.772Z,99550.00
2022-08-12T05:34:17.790Z,99547.00
2022-08-12T05:35:17.815Z,99547.00
2022-08-12T05:36:17.817Z,99550.00
2022-08-12T05:37:17.828Z,99547.00
2022-08-12T05:38:17.863Z,99548.00
2022-08-12T05:39:17.951Z,99552.00
2022-08-12T05:40:17.898Z,99549.00
2022-08-12T05:41:17.924Z,99549.00
2022-08-12T05:42:17.920Z,99550.00
2022-08-12T05:43:17.952Z,99550.00
2022-08-12T05:44:17.973Z,99553.00
2022-08-12T05:45:18.004Z,99551.00
2022-08-12T05:46:18.071Z,99553.00
2022-08-12T05:47:18.025Z,99553.00
2022-08-12T05:48:18.053Z,99556.00
2022-08-12T05:49:18.083Z,99558.00
2022-08-12T05:50:18.063Z,99548.00
2022-08-12T05:51:18.074Z,99557.00
2022-08-12T05:52:18.149Z,99556.00
2022-08-12T05:53:18.110Z,99553.00
2022-08-12T05:54:18.096Z,99551.00
2022-08-12T05:55:18.105Z,99556.00
2022-08-12T05:56:18.130Z,99555.00
2022-08-12T05:57:18.157Z,99557.00
2022-08-12T05:58:18.180Z,99554.00
2022-08-12T05:59:18.197Z,99554.00
2022-08-12T06:00:18.229Z,99558.00
2022-08-12T06:02:09.837Z,99556.00
2022-08-12T06:02:18.484Z,99556.00
2022-08-12T06:03:19.719Z,99558.00
2022-08-12T06:04:18.304Z,99560.00
2022-08-12T06:05:18.571Z,99556.00
2022-08-12T06:06:18.343Z,99560.00
2022-08-12T06:07:59.355Z,99559.00
2022-08-12T06:08:18.401Z,99558.00
2022-08-12T06:09:18.371Z,99561.00
2022-08-12T06:10:18.387Z,99563.00
2022-08-12T06:11:18.414Z,99561.00
2022-08-12T06:12:18.438Z,99560.00
2022-08-12T06:13:25.714Z,99563.00
2022-08-12T06:14:18.459Z,99562.00
2022-08-12T06:15:18.478Z,99564.00
2022-08-12T06:16:18.479Z,99567.00
2022-08-12T06:17:18.516Z,99558.00
2022-08-12T06:18:18.537Z,99566.00
2022-08-12T06:19:18.516Z,99567.00
2022-08-12T06:20:26.113Z,99566.00
2022-08-12T06:21:18.565Z,99564.00
2022-08-12T06:22:18.566Z,99564.00
2022-08-12T06:23:18.617Z,99566.00
2022-08-12T06:24:18.587Z,99567.00
2022-08-12T06:25:21.618Z,99570.00
2022-08-12T06:26:18.604Z,99566.00
2022-08-12T06:27:18.787Z,99569.00
2022-08-12T06:28:18.627Z,99566.00
2022-08-12T06:30:07.480Z,99567.00
2022-08-12T06:30:29.316Z,99566.00
2022-08-12T06:31:27.168Z,99568.00
2022-08-12T06:32:18.704Z,99566.00
2022-08-12T06:33:22.491Z,99564.00
2022-08-12T06:35:24.246Z,99566.00
2022-08-12T06:35:26.488Z,99566.00
2022-08-12T06:36:21.812Z,99562.00
2022-08-12T06:37:18.785Z,99566.00
2022-08-12T06:38:18.788Z,99565.00
2022-08-12T06:39:18.895Z,99560.00
2022-08-12T06:40:18.823Z,99566.00
2022-08-12T06:41:18.819Z,99564.00
2022-08-12T06:42:31.791Z,99561.00
2022-08-12T06:43:18.868Z,99567.00
2022-08-12T06:44:18.888Z,99563.00
2022-08-12T06:45:18.901Z,99562.00
2022-08-12T06:46:18.926Z,99567.00
2022-08-12T06:47:18.951Z,99567.00
2022-08-12T06:48:18.990Z,99566.00
2022-08-12T06:49:19.061Z,99564.00
2022-08-12T06:50:19.009Z,99562.00
2022-08-12T06:51:19.029Z,99564.00
2022-08-12T06:52:19.061Z,99564.00
2022-08-12T06:53:19.079Z,99564.00
2022-08-12T06:54:31.814Z,99561.00
2022-08-12T06:55:19.124Z,99561.00
2022-08-12T06:56:19.345Z,99561.00
2022-08-12T06:58:06.891Z,99559.00
2022-08-12T06:58:19.150Z,99561.00
2022-08-12T06:59:19.124Z,99557.00
2022-08-12T07:00:19.124Z,99559.00
2022-08-12T07:01:19.177Z,99557.00
2022-08-12T07:02:19.144Z,99554.00
2022-08-12T07:03:22.894Z,99552.00
2022-08-12T07:04:36.421Z,99555.00
2022-08-12T07:05:19.232Z,99556.00
2022-08-12T07:06:19.252Z,99556.00
2022-08-12T07:07:19.280Z,99557.00
2022-08-12T07:08:19.306Z,99558.00
2022-08-12T07:10:01.132Z,99552.00
2022-08-12T07:10:19.347Z,99554.00
2022-08-12T07:11:19.371Z,99555.00
2022-08-12T07:12:19.398Z,99553.00
2022-08-12T07:13:19.414Z,99555.00
2022-08-12T07:14:19.394Z,99552.00
2022-08-12T07:15:19.432Z,99552.00
2022-08-12T07:16:19.443Z,99552.00
2022-08-12T07:17:19.463Z,99549.00
2022-08-12T07:18:19.479Z,99549.00
2022-08-12T07:19:19.525Z,99549.00
2022-08-12T07:20:49.847Z,99544.00
2022-08-12T07:21:19.521Z,99549.00
2022-08-12T07:22:19.558Z,99547.00
2022-08-12T07:23:19.535Z,99542.00
2022-08-12T07:24:19.527Z,99548.00
2022-08-12T07:25:19.544Z,99541.00
2022-08-12T07:26:19.572Z,99542.00
2022-08-12T07:27:19.625Z,99545.00
2022-08-12T07:28:19.605Z,99545.00
2022-08-12T07:29:19.610Z,99544.00
2022-08-12T07:30:19.626Z,99544.00
2022-08-12T07:31:19.652Z,99542.00
2022-08-12T07:32:19.682Z,99540.00
2022-08-12T07:33:19.672Z,99539.00
2022-08-12T07:34:19.684Z,99540.00
2022-08-12T07:35:19.682Z,99544.00
2022-08-12T07:36:19.714Z,99544.00
2022-08-12T07:37:19.727Z,99545.00
2022-08-12T07:38:19.764Z,99545.00
2022-08-12T07:39:19.805Z,99547.00
2022-08-12T07:40:19.743Z,99543.00
2022-08-12T07:41:19.769Z,99541.00
2022-08-12T07:42:19.805Z,99542.00
2022-08-12T07:43:19.798Z,99545.00
2022-08-12T07:44:19.856Z,99539.00
2022-08-12T07:45:19.876Z,99543.00
2022-08-12T07:46:19.852Z,99541.00
2022-08-12T07:47:19.879Z,99538.00
2022-08-12T07:48:19.929Z,99539.00
2022-08-12T07:49:19.914Z,99538.00
2022-08-12T07:50:23.635Z,99536.00
2022-08-12T07:51:25.593Z,99535.00
2022-08-12T07:52:19.953Z,99538.00
2022-08-12T07:53:19.964Z,99535.00
2022-08-12T07:54:20.017Z,99535.00
2022-08-12T07:55:19.987Z,99536.00
2022-08-12T07:56:20.004Z,99532.00
2022-08-12T07:57:20.034Z,99532.00
2022-08-12T07:58:20.051Z,99529.00
2022-08-12T07:59:20.085Z,99532.00
2022-08-12T08:00:20.092Z,99531.00
2022-08-12T08:01:20.150Z,99531.00
2022-08-12T08:02:20.125Z,99530.00
2022-08-12T08:03:20.160Z,99527.00
2022-08-12T08:04:20.174Z,99532.00
2022-08-12T08:05:20.161Z,99531.00
2022-08-12T08:06:20.324Z,99527.00
2022-08-12T08:07:20.190Z,99528.00
2022-08-12T08:08:20.201Z,99525.00
2022-08-12T08:09:20.169Z,99521.00
2022-08-12T08:10:20.301Z,99522.00
2022-08-12T08:11:20.229Z,99520.00
2022-08-12T08:12:20.253Z,99522.00
2022-08-12T08:13:20.272Z,99519.00
2022-08-12T08:14:20.301Z,99519.00
2022-08-12T08:15:20.319Z,99518.00
2022-08-12T08:16:20.325Z,99520.00
2022-08-12T08:17:20.352Z,99522.00
2022-08-12T08:18:26.812Z,99518.00
2022-08-12T08:19:20.389Z,99517.00
2022-08-12T08:20:20.485Z,99519.00
2022-08-12T08:21:20.403Z,99517.00
2022-08-12T08:22:24.823Z,99518.00
2022-08-12T08:23:20.449Z,99521.00
2022-08-12T08:24:20.455Z,99524.00
2022-08-12T08:25:37.264Z,99524.00
2022-08-12T08:26:20.508Z,99520.00
2022-08-12T08:27:20.520Z,99519.00
2022-08-12T08:28:20.539Z,99518.00
2022-08-12T08:29:20.553Z,99517.00
2022-08-12T08:30:20.667Z,99518.00
2022-08-12T08:31:20.568Z,99508.00
2022-08-12T08:32:20.554Z,99517.00
2022-08-12T08:33:24.732Z,99515.00
2022-08-12T08:34:33.884Z,99509.00
2022-08-12T08:35:20.643Z,99512.00
2022-08-12T08:36:23.931Z,99513.00
2022-08-12T08:37:20.658Z,99518.00
2022-08-12T08:38:31.830Z,99514.00
2022-08-12T08:39:20.733Z,99511.00
2022-08-12T08:40:20.663Z,99514.00
2022-08-12T08:42:16.789Z,99512.00
2022-08-12T08:42:20.899Z,99510.00
2022-08-12T08:43:20.724Z,99511.00
2022-08-12T08:44:20.739Z,99507.00
2022-08-12T08:45:20.753Z,99504.00
2022-08-12T08:46:20.766Z,99507.00
2022-08-12T08:47:20.804Z,99503.00
2022-08-12T08:48:20.808Z,99504.00
2022-08-12T08:49:20.815Z,99503.00
2022-08-12T08:50:20.832Z,99501.00
2022-08-12T08:51:20.839Z,99506.00
2022-08-12T08:52:39.016Z,99502.00
2022-08-12T08:53:20.892Z,99505.00
2022-08-12T08:54:20.910Z,99500.00
2022-08-12T08:55:27.426Z,99497.00
2022-08-12T08:56:20.937Z,99500.00
2022-08-12T08:57:20.946Z,99505.00
2022-08-12T08:58:20.947Z,99500.00
2022-08-12T08:59:20.981Z,99498.00
2022-08-12T09:00:21.007Z,99501.00
2022-08-12T09:01:21.097Z,99505.00
2022-08-12T09:02:21.087Z,99506.00
2022-08-12T09:05:07.504Z,99500.00
2022-08-12T09:05:11.484Z,99499.00
2022-08-12T09:05:25.391Z,99497.00
2022-08-12T09:06:36.987Z,99492.00
2022-08-12T09:07:51.324Z,99482.00
2022-08-12T09:08:27.666Z,99477.00
2022-08-12T09:09:21.182Z,99484.00
2022-08-12T09:10:31.087Z,99489.00
2022-08-12T09:12:06.732Z,99487.00
2022-08-12T09:13:23.438Z,99485.00
2022-08-12T09:14:29.165Z,99490.00
2022-08-12T09:15:21.317Z,99485.00
2022-08-12T09:16:21.343Z,99485.00
2022-08-12T09:17:21.774Z,99488.00
2022-08-12T09:20:21.440Z,99488.00
2022-08-12T09:21:23.224Z,99476.00
2022-08-12T09:22:21.491Z,99481.00
2022-08-12T09:23:58.837Z,99478.00
2022-08-12T09:24:21.546Z,99486.00
2022-08-12T09:25:25.542Z,99486.00
2022-08-12T09:26:21.558Z,99487.00
2022-08-12T09:27:25.742Z,99484.00
2022-08-12T09:28:21.804Z,99480.00
2022-08-12T09:30:11.841Z,99481.00
2022-08-12T09:30:42.028Z,99479.00
2022-08-12T09:32:07.127Z,99478.00
2022-08-12T09:32:56.237Z,99475.00
2022-08-12T09:34:26.388Z,99474.00
2022-08-12T09:34:28.352Z,99480.00
2022-08-12T09:35:28.292Z,99478.00
2022-08-12T09:36:31.253Z,99473.00
2022-08-12T09:37:22.592Z,99482.00
2022-08-12T09:38:27.960Z,99477.00
2022-08-12T09:40:01.469Z,99472.00
2022-08-12T09:41:01.781Z,99474.00
2022-08-12T09:42:34.359Z,99476.00
2022-08-12T09:42:40.356Z,99477.00
2022-08-12T09:43:22.528Z,99478.00
2022-08-12T09:44:38.279Z,99472.00
2022-08-12T09:45:23.565Z,99476.00
2022-08-12T09:46:25.728Z,99477.00
2022-08-12T09:47:29.541Z,99472.00
2022-08-12T09:48:22.435Z,99467.00
2022-08-12T09:49:23.959Z,99464.00
2022-08-12T09:50:21.989Z,99468.00
2022-08-12T09:51:22.867Z,99471.00
2022-08-12T09:52:22.023Z,99468.00
2022-08-12T09:53:36.127Z,99471.00
2022-08-12T09:54:31.028Z,99473.00
2022-08-12T09:56:07.378Z,99469.00
2022-08-12T09:56:59.994Z,99463.00
2022-08-12T09:58:07.565Z,99467.00
2022-08-12T09:58:57.729Z,99458.00
2022-08-12T10:00:13.023Z,99460.00
2022-08-12T10:00:28.266Z,99459.00
2022-08-12T10:01:23.052Z,99451.00
2022-08-12T10:02:45.601Z,99452.00
2022-08-12T10:03:32.525Z,99454.00
2022-08-12T10:04:22.345Z,99458.00
2022-08-12T10:05:22.283Z,99453.00
2022-08-12T10:06:31.776Z,99450.00
2022-08-12T10:07:24.759Z,99449.00
2022-08-12T10:08:22.342Z,99444.00
2022-08-12T10:09:23.097Z,99450.00
2022-08-12T10:10:25.002Z,99443.00
2022-08-12T10:11:22.404Z,99447.00
2022-08-12T10:12:31.297Z,99438.00
2022-08-12T10:13:34.984Z,99444.00
2022-08-12T10:14:34.531Z,99441.00
2022-08-12T10:16:03.140Z,99444.00
2022-08-12T10:16:23.046Z,99435.00
2022-08-12T10:17:22.458Z,99438.00
2022-08-12T10:18:22.512Z,99440.00
2022-08-12T10:19:22.502Z,99434.00
2022-08-12T10:20:22.597Z,99439.00
2022-08-12T10:21:23.329Z,99433.00
2022-08-12T10:22:36.581Z,99434.00
2022-08-12T10:23:40.288Z,99438.00
2022-08-12T10:24:22.578Z,99434.00
2022-08-12T10:25:22.589Z,99439.00
2022-08-12T10:26:37.176Z,99434.00
2022-08-12T10:27:23.164Z,99431.00
2022-08-12T10:28:25.371Z,99432.00
2022-08-12T10:30:03.405Z,99432.00
2022-08-12T10:30:41.814Z,99431.00
2022-08-12T10:31:22.655Z,99436.00
2022-08-12T10:32:45.020Z,99439.00
2022-08-12T10:33:28.245Z,99432.00
2022-08-12T10:34:23.799Z,99433.00
2022-08-12T10:35:22.740Z,99429.00
2022-08-12T10:36:40.677Z,99431.00
2022-08-12T10:38:35.354Z,99431.00
2022-08-12T10:38:37.877Z,99434.00
2022-08-12T10:40:00.847Z,99424.00
2022-08-12T10:40:28.513Z,99424.00
2022-08-12T10:41:22.917Z,99423.00
2022-08-12T10:42:29.566Z,99422.00
2022-08-12T10:43:22.873Z,99423.00
2022-08-12T10:44:22.959Z,99420.00
2022-08-12T10:45:22.916Z,99424.00
2022-08-12T10:46:22.928Z,99419.00
2022-08-12T10:47:25.917Z,99415.00
2022-08-12T10:48:33.222Z,99418.00
2022-08-12T10:50:02.857Z,99415.00
2022-08-12T10:50:35.961Z,99419.00
2022-08-12T10:52:02.730Z,99414.00
2022-08-12T10:52:33.973Z,99408.00
2022-08-12T10:53:44.283Z,99403.00
2022-08-12T10:54:27.075Z,99401.00
2022-08-12T10:55:23.111Z,99393.00
2022-08-12T10:56:23.126Z,99401.00
2022-08-12T10:58:12.783Z,99398.00
2022-08-12T10:58:27.821Z,99397.00
2022-08-12T11:00:31.447Z,99398.00
2022-08-12T11:00:31.587Z,99395.00
2022-08-12T11:01:50.500Z,99400.00
2022-08-12T11:04:23.462Z,99391.00
2022-08-12T11:04:26.563Z,99392.00
2022-08-12T11:04:41.358Z,99395.00
2022-08-12T11:07:05.236Z,99388.00
2022-08-12T11:07:07.910Z,99393.00
2022-08-12T11:08:36.210Z,99390.00
2022-08-12T11:08:37.229Z,99394.00
2022-08-12T11:09:55.628Z,99395.00
2022-08-12T11:10:24.147Z,99392.00
2022-08-12T11:12:08.343Z,99385.00
2022-08-12T11:12:57.218Z,99380.00
2022-08-12T11:13:46.737Z,99379.00
2022-08-12T11:14:49.412Z,99381.00
2022-08-12T11:15:33.539Z,99380.00
2022-08-12T11:16:23.583Z,99383.00
2022-08-12T11:17:43.351Z,99384.00
2022-08-12T11:18:23.546Z,99383.00
2022-08-12T11:19:23.601Z,99383.00
2022-08-12T11:20:24.463Z,99372.00
2022-08-12T11:21:39.594Z,99376.00
2022-08-12T11:22:24.188Z,99375.00
2022-08-12T11:23:24.954Z,99378.00
2022-08-12T11:24:31.806Z,99380.00
2022-08-12T11:25:23.681Z,99373.00
2022-08-12T11:26:23.681Z,99366.00
2022-08-12T11:27:23.698Z,99372.00
2022-08-12T11:28:34.541Z,99372.00
2022-08-12T11:29:23.755Z,99376.00
2022-08-12T11:30:31.307Z,99371.00
2022-08-12T11:31:23.785Z,99376.00
2022-08-12T11:32:23.783Z,99372.00
2022-08-12T11:33:24.405Z,99369.00
2022-08-12T11:34:53.527Z,99367.00
2022-08-12T11:35:23.843Z,99371.00
2022-08-12T11:36:23.798Z,99360.00
2022-08-12T11:37:26.267Z,99359.00
2022-08-12T11:38:23.824Z,99366.00
2022-08-12T11:40:02.888Z,99365.00
2022-08-12T11:40:23.887Z,99357.00
2022-08-12T11:41:31.054Z,99363.00
2022-08-12T11:42:32.147Z,99364.00
2022-08-12T11:43:23.919Z,99361.00
2022-08-12T11:44:43.315Z,99356.00
2022-08-12T11:45:23.968Z,99355.00
2022-08-12T11:46:23.985Z,99353.00
2022-08-12T11:47:24.008Z,99355.00
2022-08-12T11:48:27.027Z,99349.00
2022-08-12T11:49:30.550Z,99352.00